Bronaugh, MO

12:34 AM CDT on August 01, 2014 (GMT -0500)
Chanute Martin Johnson (KCNU) Elev 1001 ft | 37.67 °N, 95.48 °W | Change Station

Current weather conditions updated 42 minutes ago

Clear
Clear
63 °F
Feels Like 63 °F
N
6
Wind Variable Wind from South

Today is forecast to be Warmer than yesterday.

Today
High -- | Low -- °F
--% Chance of Precip.
Yesterday
High -- | Low -- °F
Precip. -- in
6:21 AM 8:26 PM
Waxing Crescent, 23% visible
Pressure 30.08 in
Visibility 10.0 miles
Clouds Clear
Dew Point 59 °F
Humidity 88%
Rainfall 0.00 in
Snow Depth Not available.
UV 0 out of 12
Pollen 3.60 out of 12
Air Quality Not available.
Flu Activity Not available.
METAR KCNU 010452Z AUTO 17005KT 10SM CLR 17/15 A3008

More Conditions Fewer Conditions

Pressure 30.08 in
Visibility 10.0 miles
Clouds Clear
Dew Point 59 °F
Humidity 88%
Rainfall 0.00 in
Snow Depth Not available.
UV 0 out of 12
Pollen 3.60 out of 12
Air Quality Not available.
Flu Activity Not available.
METAR KCNU 010452Z AUTO 17005KT 10SM CLR 17/15 A3008

More Conditions Fewer Conditions

10-Day Weather Forecast

Almanac

Astronomy

Aug. 01, 2014 Rise Set
Actual Time 6:21 AM CDT 8:26 PM CDT
Civil Twilight 5:52 AM CDT 8:55 PM CDT
Nautical Twilight 5:17 AM CDT 9:30 PM CDT
Astronomical Twilight 4:38 AM CDT 10:08 PM CDT
Moon 11:39 AM CDT 11:18 PM CDT
Length of Visible Light 15h 02m
Length of Day
14h 04m
Tomorrow will be 1m 50s shorter.
Waxing Crescent, 23% of the Moon is Illuminated
Today
Waxing Crescent
Aug 3
First Quarter
Aug 10
Full
Aug 17
Last Quarter
Aug 25
New

Today's Extremes

State Highs State Lows

Community

WunderPhotos

Upload Photos

1,739,516 photos uploaded!

Nearby

Snow Depth

Station Depth Elevation
No new snow has been reported.

Earthquake Activity

City Distance Mag. Time & Date
No recent earthquake activity has been reported nearby.
Minimum magnitude displayed is 2.5.

Coastal Water Temperatures

Place Temperature
No Stations Reporting

Nearby Weather Stations

Station Location Temp. Heat Index Dew Point Humidity Wind Precip. Elev Updated Type
Nevada, Nevada, MO 62.1 °F - 58 °F 85% NE  at  0.0 mph 0.00 in / hr 863 ft 1:34 AM EDT Rapid Fire
Irwin, MO, Lamar, MO 68.1 °F - 63 °F 83% SW  at  3.0 mph 0.00 in / hr 955 ft 12:34 AM CDT Normal
Frontenac Industrial Park, Frontenac, KS 67.1 °F - 43 °F 42% North  at  0.0 mph 0.00 in / hr 965 ft 12:34 AM CDT Rapid Fire
Frontenac KS, Frontenac, KS 74.8 °F 77 °F 58 °F 56% North  at  0.0 mph 0.00 in / hr 948 ft 8:42 PM CDT Rapid Fire
Frontenac, KS 67.1 °F - 65 °F 94% SW  at  0.0 mph 0.00 in / hr 942 ft 12:34 AM CDT Rapid Fire
Southwest Pittsburg, Kansas, Pittsburg, KS 71.2 °F - 66 °F 86% North  at  - - / hr 935 ft 12:20 AM CDT Normal

Show More Stations Show Fewer Stations